sensor_id;sensor_type;location;lat;lon;timestamp;P1;durP1;ratioP1;P2;durP2;ratioP2
55328;SDS011;41205;44.264;19.884;2023-01-10T00:01:28;88.30;;;54.78;;
55328;SDS011;41205;44.264;19.884;2023-01-10T00:03:54;105.35;;;60.20;;
55328;SDS011;41205;44.264;19.884;2023-01-10T00:06:19;72.38;;;46.10;;
55328;SDS011;41205;44.264;19.884;2023-01-10T00:08:45;84.20;;;48.63;;
55328;SDS011;41205;44.264;19.884;2023-01-10T00:11:11;75.95;;;46.33;;
55328;SDS011;41205;44.264;19.884;2023-01-10T00:13:57;69.63;;;45.30;;
55328;SDS011;41205;44.264;19.884;2023-01-10T00:16:23;39.00;;;25.90;;
55328;SDS011;41205;44.264;19.884;2023-01-10T00:18:48;53.03;;;30.85;;
55328;SDS011;41205;44.264;19.884;2023-01-10T00:21:14;185.75;;;93.25;;
55328;SDS011;41205;44.264;19.884;2023-01-10T00:23:40;151.23;;;77.70;;
55328;SDS011;41205;44.264;19.884;2023-01-10T00:26:07;93.20;;;51.88;;
55328;SDS011;41205;44.264;19.884;2023-01-10T00:28:33;38.03;;;26.38;;
55328;SDS011;41205;44.264;19.884;2023-01-10T00:30:59;21.05;;;12.73;;
55328;SDS011;41205;44.264;19.884;2023-01-10T00:33:26;37.03;;;22.08;;
55328;SDS011;41205;44.264;19.884;2023-01-10T00:35:52;48.55;;;26.20;;
55328;SDS011;41205;44.264;19.884;2023-01-10T00:38:18;51.00;;;26.10;;
55328;SDS011;41205;44.264;19.884;2023-01-10T00:40:44;18.25;;;12.30;;
55328;SDS011;41205;44.264;19.884;2023-01-10T00:43:10;26.02;;;16.55;;
55328;SDS011;41205;44.264;19.884;2023-01-10T00:45:55;73.82;;;47.03;;
55328;SDS011;41205;44.264;19.884;2023-01-10T00:48:22;76.18;;;51.17;;
55328;SDS011;41205;44.264;19.884;2023-01-10T00:50:48;94.90;;;62.85;;
55328;SDS011;41205;44.264;19.884;2023-01-10T00:53:14;91.10;;;55.47;;
55328;SDS011;41205;44.264;19.884;2023-01-10T00:55:40;76.10;;;51.53;;
55328;SDS011;41205;44.264;19.884;2023-01-10T00:58:05;62.38;;;43.35;;
55328;SDS011;41205;44.264;19.884;2023-01-10T01:00:35;76.22;;;49.53;;
55328;SDS011;41205;44.264;19.884;2023-01-10T01:03:05;47.15;;;30.05;;
55328;SDS011;41205;44.264;19.884;2023-01-10T01:05:31;46.95;;;28.38;;
55328;SDS011;41205;44.264;19.884;2023-01-10T01:07:57;51.78;;;31.08;;
55328;SDS011;41205;44.264;19.884;2023-01-10T01:10:23;58.60;;;38.08;;
55328;SDS011;41205;44.264;19.884;2023-01-10T01:12:55;69.68;;;41.13;;
55328;SDS011;41205;44.264;19.884;2023-01-10T01:15:29;47.33;;;30.42;;
55328;SDS011;41205;44.264;19.884;2023-01-10T01:17:55;48.55;;;31.40;;
55328;SDS011;41205;44.264;19.884;2023-01-10T01:20:21;126.88;;;66.78;;
55328;SDS011;41205;44.264;19.884;2023-01-10T01:22:47;179.15;;;89.22;;
55328;SDS011;41205;44.264;19.884;2023-01-10T01:25:12;75.43;;;43.55;;
55328;SDS011;41205;44.264;19.884;2023-01-10T01:27:38;42.65;;;28.35;;
55328;SDS011;41205;44.264;19.884;2023-01-10T01:30:05;36.63;;;25.92;;
55328;SDS011;41205;44.264;19.884;2023-01-10T01:32:31;27.75;;;18.55;;
55328;SDS011;41205;44.264;19.884;2023-01-10T01:34:57;27.00;;;19.30;;
55328;SDS011;41205;44.264;19.884;2023-01-10T01:37:23;28.20;;;18.30;;
55328;SDS011;41205;44.264;19.884;2023-01-10T01:39:48;28.85;;;19.10;;
55328;SDS011;41205;44.264;19.884;2023-01-10T01:42:25;34.72;;;21.33;;
55328;SDS011;41205;44.264;19.884;2023-01-10T01:47:44;38.60;;;24.17;;
55328;SDS011;41205;44.264;19.884;2023-01-10T01:50:15;30.58;;;19.15;;
55328;SDS011;41205;44.264;19.884;2023-01-10T01:52:51;24.75;;;16.15;;
55328;SDS011;41205;44.264;19.884;2023-01-10T01:55:19;14.35;;;9.60;;
55328;SDS011;41205;44.264;19.884;2023-01-10T01:57:46;21.25;;;13.32;;
55328;SDS011;41205;44.264;19.884;2023-01-10T02:00:13;45.25;;;26.23;;
55328;SDS011;41205;44.264;19.884;2023-01-10T02:02:49;57.13;;;33.35;;
55328;SDS011;41205;44.264;19.884;2023-01-10T02:05:17;34.30;;;21.63;;
55328;SDS011;41205;44.264;19.884;2023-01-10T02:07:47;34.83;;;21.75;;
55328;SDS011;41205;44.264;19.884;2023-01-10T02:10:17;18.90;;;11.23;;
55328;SDS011;41205;44.264;19.884;2023-01-10T02:12:48;13.27;;;8.30;;
55328;SDS011;41205;44.264;19.884;2023-01-10T02:15:16;12.10;;;8.27;;
55328;SDS011;41205;44.264;19.884;2023-01-10T02:17:42;14.40;;;7.63;;
55328;SDS011;41205;44.264;19.884;2023-01-10T02:20:11;13.13;;;8.10;;
55328;SDS011;41205;44.264;19.884;2023-01-10T02:33:57;12.93;;;6.90;;
55328;SDS011;41205;44.264;19.884;2023-01-10T02:36:37;10.25;;;6.63;;
55328;SDS011;41205;44.264;19.884;2023-01-10T02:42:06;8.52;;;6.18;;
55328;SDS011;41205;44.264;19.884;2023-01-10T02:47:22;7.75;;;5.97;;
55328;SDS011;41205;44.264;19.884;2023-01-10T02:49:49;7.95;;;6.13;;
55328;SDS011;41205;44.264;19.884;2023-01-10T02:52:17;12.10;;;9.13;;
55328;SDS011;41205;44.264;19.884;2023-01-10T02:54:49;10.40;;;7.10;;
55328;SDS011;41205;44.264;19.884;2023-01-10T03:02:48;9.02;;;4.45;;
55328;SDS011;41205;44.264;19.884;2023-01-10T03:11:04;5.50;;;3.47;;
55328;SDS011;41205;44.264;19.884;2023-01-10T03:15:57;5.57;;;3.65;;
55328;SDS011;41205;44.264;19.884;2023-01-10T03:18:27;6.32;;;4.60;;
55328;SDS011;41205;44.264;19.884;2023-01-10T03:20:58;5.28;;;4.10;;
55328;SDS011;41205;44.264;19.884;2023-01-10T03:23:27;4.50;;;3.35;;
55328;SDS011;41205;44.264;19.884;2023-01-10T03:25:54;7.25;;;4.43;;
55328;SDS011;41205;44.264;19.884;2023-01-10T03:31:01;4.95;;;3.65;;
55328;SDS011;41205;44.264;19.884;2023-01-10T03:33:31;4.80;;;3.08;;
55328;SDS011;41205;44.264;19.884;2023-01-10T03:38:54;6.45;;;3.63;;
55328;SDS011;41205;44.264;19.884;2023-01-10T03:41:39;5.18;;;3.00;;
55328;SDS011;41205;44.264;19.884;2023-01-10T03:50:00;4.15;;;2.72;;
55328;SDS011;41205;44.264;19.884;2023-01-10T03:52:35;3.45;;;2.28;;
55328;SDS011;41205;44.264;19.884;2023-01-10T03:55:02;7.47;;;4.03;;
55328;SDS011;41205;44.264;19.884;2023-01-10T03:57:29;5.15;;;2.75;;
55328;SDS011;41205;44.264;19.884;2023-01-10T03:59:56;6.70;;;6.10;;
55328;SDS011;41205;44.264;19.884;2023-01-10T04:02:26;3.75;;;2.22;;
55328;SDS011;41205;44.264;19.884;2023-01-10T04:04:54;3.72;;;1.80;;
55328;SDS011;41205;44.264;19.884;2023-01-10T04:07:20;3.65;;;1.80;;
55328;SDS011;41205;44.264;19.884;2023-01-10T04:09:46;5.57;;;1.80;;
55328;SDS011;41205;44.264;19.884;2023-01-10T04:12:12;3.72;;;1.38;;
55328;SDS011;41205;44.264;19.884;2023-01-10T04:14:38;3.78;;;1.67;;
55328;SDS011;41205;44.264;19.884;2023-01-10T04:17:03;2.53;;;1.40;;
55328;SDS011;41205;44.264;19.884;2023-01-10T04:19:30;3.22;;;1.60;;
55328;SDS011;41205;44.264;19.884;2023-01-10T04:21:55;2.90;;;1.45;;
55328;SDS011;41205;44.264;19.884;2023-01-10T04:24:21;2.33;;;1.33;;
55328;SDS011;41205;44.264;19.884;2023-01-10T04:26:47;2.08;;;1.23;;
55328;SDS011;41205;44.264;19.884;2023-01-10T04:29:13;2.83;;;1.25;;
55328;SDS011;41205;44.264;19.884;2023-01-10T04:31:39;1.98;;;1.17;;
55328;SDS011;41205;44.264;19.884;2023-01-10T04:34:05;2.83;;;1.35;;
55328;SDS011;41205;44.264;19.884;2023-01-10T04:36:33;2.83;;;1.50;;
55328;SDS011;41205;44.264;19.884;2023-01-10T04:39:00;3.55;;;1.55;;
55328;SDS011;41205;44.264;19.884;2023-01-10T04:41:26;2.53;;;1.63;;
55328;SDS011;41205;44.264;19.884;2023-01-10T04:43:52;1.88;;;1.05;;
55328;SDS011;41205;44.264;19.884;2023-01-10T04:46:18;5.88;;;3.35;;
55328;SDS011;41205;44.264;19.884;2023-01-10T04:48:43;3.35;;;1.85;;
55328;SDS011;41205;44.264;19.884;2023-01-10T04:51:09;1.95;;;1.20;;
55328;SDS011;41205;44.264;19.884;2023-01-10T04:53:35;1.60;;;1.10;;
55328;SDS011;41205;44.264;19.884;2023-01-10T04:56:01;6.97;;;3.65;;
55328;SDS011;41205;44.264;19.884;2023-01-10T04:58:31;7.22;;;2.00;;
55328;SDS011;41205;44.264;19.884;2023-01-10T05:01:08;7.22;;;4.10;;
55328;SDS011;41205;44.264;19.884;2023-01-10T05:03:35;6.07;;;3.95;;
55328;SDS011;41205;44.264;19.884;2023-01-10T05:06:01;6.22;;;3.30;;
55328;SDS011;41205;44.264;19.884;2023-01-10T05:08:27;7.43;;;3.97;;
55328;SDS011;41205;44.264;19.884;2023-01-10T05:10:53;9.55;;;6.07;;
55328;SDS011;41205;44.264;19.884;2023-01-10T05:13:19;3.95;;;2.30;;
55328;SDS011;41205;44.264;19.884;2023-01-10T05:15:45;4.13;;;2.42;;
55328;SDS011;41205;44.264;19.884;2023-01-10T05:18:11;5.28;;;3.38;;
55328;SDS011;41205;44.264;19.884;2023-01-10T05:20:37;4.63;;;2.60;;
55328;SDS011;41205;44.264;19.884;2023-01-10T05:23:02;4.93;;;2.40;;
55328;SDS011;41205;44.264;19.884;2023-01-10T05:25:28;10.52;;;1.77;;
55328;SDS011;41205;44.264;19.884;2023-01-10T05:27:54;4.00;;;1.83;;
55328;SDS011;41205;44.264;19.884;2023-01-10T05:30:19;3.05;;;1.45;;
55328;SDS011;41205;44.264;19.884;2023-01-10T05:32:45;2.30;;;1.40;;
55328;SDS011;41205;44.264;19.884;2023-01-10T05:35:11;1.83;;;1.10;;
55328;SDS011;41205;44.264;19.884;2023-01-10T05:37:37;1.30;;;0.80;;
55328;SDS011;41205;44.264;19.884;2023-01-10T05:40:02;1.75;;;1.08;;
55328;SDS011;41205;44.264;19.884;2023-01-10T05:42:29;1.75;;;1.02;;
55328;SDS011;41205;44.264;19.884;2023-01-10T05:44:54;2.92;;;0.90;;
55328;SDS011;41205;44.264;19.884;2023-01-10T05:47:20;2.83;;;1.30;;
55328;SDS011;41205;44.264;19.884;2023-01-10T05:49:46;4.75;;;1.48;;
55328;SDS011;41205;44.264;19.884;2023-01-10T05:52:11;2.03;;;1.10;;
55328;SDS011;41205;44.264;19.884;2023-01-10T05:54:37;4.03;;;2.25;;
55328;SDS011;41205;44.264;19.884;2023-01-10T05:57:03;1.77;;;1.00;;
55328;SDS011;41205;44.264;19.884;2023-01-10T05:59:28;4.05;;;2.22;;
55328;SDS011;41205;44.264;19.884;2023-01-10T06:01:54;3.42;;;2.13;;
55328;SDS011;41205;44.264;19.884;2023-01-10T06:04:20;3.83;;;2.95;;
55328;SDS011;41205;44.264;19.884;2023-01-10T06:06:45;1.88;;;1.30;;
55328;SDS011;41205;44.264;19.884;2023-01-10T06:09:11;2.17;;;1.10;;
55328;SDS011;41205;44.264;19.884;2023-01-10T06:11:37;1.90;;;1.20;;
55328;SDS011;41205;44.264;19.884;2023-01-10T06:14:03;2.50;;;1.10;;
55328;SDS011;41205;44.264;19.884;2023-01-10T06:16:29;2.58;;;1.30;;
55328;SDS011;41205;44.264;19.884;2023-01-10T06:18:55;2.22;;;1.42;;
55328;SDS011;41205;44.264;19.884;2023-01-10T06:21:21;4.63;;;2.60;;
55328;SDS011;41205;44.264;19.884;2023-01-10T06:23:46;5.22;;;2.88;;
55328;SDS011;41205;44.264;19.884;2023-01-10T06:26:12;10.25;;;7.93;;
55328;SDS011;41205;44.264;19.884;2023-01-10T06:28:38;33.28;;;19.50;;
55328;SDS011;41205;44.264;19.884;2023-01-10T06:31:05;23.48;;;17.60;;
55328;SDS011;41205;44.264;19.884;2023-01-10T06:33:32;22.58;;;14.05;;
55328;SDS011;41205;44.264;19.884;2023-01-10T06:35:58;14.18;;;9.20;;
55328;SDS011;41205;44.264;19.884;2023-01-10T06:38:24;11.07;;;8.60;;
55328;SDS011;41205;44.264;19.884;2023-01-10T06:40:49;12.75;;;6.88;;
55328;SDS011;41205;44.264;19.884;2023-01-10T06:43:15;15.88;;;9.80;;
55328;SDS011;41205;44.264;19.884;2023-01-10T06:45:41;9.65;;;6.55;;
55328;SDS011;41205;44.264;19.884;2023-01-10T06:48:07;7.97;;;5.90;;
55328;SDS011;41205;44.264;19.884;2023-01-10T06:50:32;8.90;;;5.82;;
55328;SDS011;41205;44.264;19.884;2023-01-10T06:52:59;17.77;;;9.65;;
55328;SDS011;41205;44.264;19.884;2023-01-10T06:55:26;8.70;;;5.82;;
55328;SDS011;41205;44.264;19.884;2023-01-10T06:57:56;4.40;;;3.25;;
55328;SDS011;41205;44.264;19.884;2023-01-10T07:00:23;7.10;;;4.75;;
55328;SDS011;41205;44.264;19.884;2023-01-10T07:02:50;12.52;;;8.90;;
55328;SDS011;41205;44.264;19.884;2023-01-10T07:05:16;149.52;;;121.40;;
55328;SDS011;41205;44.264;19.884;2023-01-10T07:07:41;25.95;;;23.10;;
55328;SDS011;41205;44.264;19.884;2023-01-10T07:10:07;5.25;;;3.30;;
55328;SDS011;41205;44.264;19.884;2023-01-10T07:12:33;56.33;;;41.17;;
55328;SDS011;41205;44.264;19.884;2023-01-10T07:14:59;12.20;;;9.52;;
55328;SDS011;41205;44.264;19.884;2023-01-10T07:17:25;14.57;;;11.70;;
55328;SDS011;41205;44.264;19.884;2023-01-10T07:19:50;7.65;;;4.80;;
55328;SDS011;41205;44.264;19.884;2023-01-10T07:22:16;4.53;;;3.17;;
55328;SDS011;41205;44.264;19.884;2023-01-10T07:24:42;9.52;;;8.52;;
55328;SDS011;41205;44.264;19.884;2023-01-10T07:27:08;13.65;;;11.80;;
55328;SDS011;41205;44.264;19.884;2023-01-10T07:29:33;10.10;;;9.25;;
55328;SDS011;41205;44.264;19.884;2023-01-10T07:31:59;4.55;;;3.45;;
55328;SDS011;41205;44.264;19.884;2023-01-10T07:34:25;3.85;;;2.53;;
55328;SDS011;41205;44.264;19.884;2023-01-10T07:36:50;4.97;;;3.28;;
55328;SDS011;41205;44.264;19.884;2023-01-10T07:39:16;9.15;;;5.32;;
55328;SDS011;41205;44.264;19.884;2023-01-10T07:41:41;10.95;;;7.10;;
55328;SDS011;41205;44.264;19.884;2023-01-10T07:44:07;6.80;;;4.47;;
55328;SDS011;41205;44.264;19.884;2023-01-10T07:46:33;11.40;;;7.35;;
55328;SDS011;41205;44.264;19.884;2023-01-10T07:48:59;5.90;;;4.38;;
55328;SDS011;41205;44.264;19.884;2023-01-10T07:51:24;4.35;;;3.35;;
55328;SDS011;41205;44.264;19.884;2023-01-10T07:53:50;5.32;;;3.67;;
55328;SDS011;41205;44.264;19.884;2023-01-10T07:56:15;5.15;;;3.17;;
55328;SDS011;41205;44.264;19.884;2023-01-10T07:58:41;5.65;;;3.33;;
55328;SDS011;41205;44.264;19.884;2023-01-10T08:01:07;20.70;;;14.10;;
55328;SDS011;41205;44.264;19.884;2023-01-10T08:03:32;11.23;;;7.80;;
55328;SDS011;41205;44.264;19.884;2023-01-10T08:05:59;65.72;;;48.97;;
55328;SDS011;41205;44.264;19.884;2023-01-10T08:08:26;15.95;;;9.35;;
55328;SDS011;41205;44.264;19.884;2023-01-10T08:10:52;15.13;;;7.45;;
55328;SDS011;41205;44.264;19.884;2023-01-10T08:13:18;15.15;;;9.23;;
55328;SDS011;41205;44.264;19.884;2023-01-10T08:15:44;12.38;;;7.60;;
55328;SDS011;41205;44.264;19.884;2023-01-10T08:18:11;13.82;;;7.43;;
55328;SDS011;41205;44.264;19.884;2023-01-10T08:20:36;8.68;;;5.07;;
55328;SDS011;41205;44.264;19.884;2023-01-10T08:23:02;8.32;;;4.53;;
55328;SDS011;41205;44.264;19.884;2023-01-10T08:25:28;11.35;;;6.05;;
55328;SDS011;41205;44.264;19.884;2023-01-10T08:27:54;49.92;;;20.05;;
55328;SDS011;41205;44.264;19.884;2023-01-10T08:30:20;12.73;;;7.07;;
55328;SDS011;41205;44.264;19.884;2023-01-10T08:32:46;62.50;;;24.50;;
55328;SDS011;41205;44.264;19.884;2023-01-10T08:35:12;26.38;;;12.20;;
55328;SDS011;41205;44.264;19.884;2023-01-10T08:37:38;11.93;;;7.10;;
55328;SDS011;41205;44.264;19.884;2023-01-10T08:40:03;6.72;;;3.63;;
55328;SDS011;41205;44.264;19.884;2023-01-10T08:42:30;13.60;;;7.07;;
55328;SDS011;41205;44.264;19.884;2023-01-10T08:44:55;9.15;;;4.97;;
55328;SDS011;41205;44.264;19.884;2023-01-10T08:47:21;11.88;;;9.30;;
55328;SDS011;41205;44.264;19.884;2023-01-10T08:49:47;10.68;;;6.70;;
55328;SDS011;41205;44.264;19.884;2023-01-10T08:52:14;31.67;;;21.83;;
55328;SDS011;41205;44.264;19.884;2023-01-10T08:54:40;19.80;;;13.75;;
55328;SDS011;41205;44.264;19.884;2023-01-10T08:57:05;14.90;;;8.50;;
55328;SDS011;41205;44.264;19.884;2023-01-10T08:59:31;20.48;;;12.50;;
55328;SDS011;41205;44.264;19.884;2023-01-10T09:01:57;14.77;;;10.32;;
55328;SDS011;41205;44.264;19.884;2023-01-10T09:04:24;20.30;;;12.50;;
55328;SDS011;41205;44.264;19.884;2023-01-10T09:06:51;16.05;;;8.75;;
55328;SDS011;41205;44.264;19.884;2023-01-10T09:09:16;11.02;;;7.03;;
55328;SDS011;41205;44.264;19.884;2023-01-10T09:11:42;8.88;;;4.90;;
55328;SDS011;41205;44.264;19.884;2023-01-10T09:14:07;13.85;;;9.93;;
55328;SDS011;41205;44.264;19.884;2023-01-10T09:16:33;14.60;;;8.35;;
55328;SDS011;41205;44.264;19.884;2023-01-10T09:18:59;10.13;;;6.15;;
55328;SDS011;41205;44.264;19.884;2023-01-10T09:21:26;9.57;;;5.57;;
55328;SDS011;41205;44.264;19.884;2023-01-10T09:23:52;12.65;;;7.35;;
55328;SDS011;41205;44.264;19.884;2023-01-10T09:26:18;12.20;;;7.88;;
55328;SDS011;41205;44.264;19.884;2023-01-10T09:28:43;14.57;;;9.50;;
55328;SDS011;41205;44.264;19.884;2023-01-10T09:31:09;9.90;;;6.55;;
55328;SDS011;41205;44.264;19.884;2023-01-10T09:33:36;14.60;;;10.00;;
55328;SDS011;41205;44.264;19.884;2023-01-10T09:36:02;12.93;;;7.85;;
55328;SDS011;41205;44.264;19.884;2023-01-10T09:38:28;10.88;;;7.50;;
55328;SDS011;41205;44.264;19.884;2023-01-10T09:44:24;23.63;;;18.88;;
55328;SDS011;41205;44.264;19.884;2023-01-10T09:46:55;16.08;;;9.18;;
55328;SDS011;41205;44.264;19.884;2023-01-10T09:49:27;12.65;;;6.60;;
55328;SDS011;41205;44.264;19.884;2023-01-10T09:54:47;22.00;;;16.60;;
55328;SDS011;41205;44.264;19.884;2023-01-10T09:57:18;32.13;;;16.20;;
55328;SDS011;41205;44.264;19.884;2023-01-10T09:59:45;26.88;;;15.18;;
55328;SDS011;41205;44.264;19.884;2023-01-10T10:02:31;18.40;;;8.73;;
55328;SDS011;41205;44.264;19.884;2023-01-10T10:05:20;20.58;;;14.90;;
55328;SDS011;41205;44.264;19.884;2023-01-10T10:07:51;18.38;;;9.52;;
55328;SDS011;41205;44.264;19.884;2023-01-10T10:10:23;20.95;;;11.02;;
55328;SDS011;41205;44.264;19.884;2023-01-10T10:15:29;10.23;;;5.45;;
55328;SDS011;41205;44.264;19.884;2023-01-10T10:42:09;9.55;;;5.88;;
55328;SDS011;41205;44.264;19.884;2023-01-10T10:47:17;6.60;;;4.47;;
55328;SDS011;41205;44.264;19.884;2023-01-10T10:49:55;17.25;;;12.05;;
55328;SDS011;41205;44.264;19.884;2023-01-10T10:52:28;13.00;;;8.85;;
55328;SDS011;41205;44.264;19.884;2023-01-10T10:54:58;13.35;;;9.65;;
55328;SDS011;41205;44.264;19.884;2023-01-10T10:57:26;10.45;;;7.82;;
55328;SDS011;41205;44.264;19.884;2023-01-10T10:59:54;8.27;;;6.45;;
55328;SDS011;41205;44.264;19.884;2023-01-10T11:02:31;7.95;;;3.42;;
55328;SDS011;41205;44.264;19.884;2023-01-10T11:05:03;8.85;;;5.70;;
55328;SDS011;41205;44.264;19.884;2023-01-10T11:07:33;7.25;;;4.07;;
55328;SDS011;41205;44.264;19.884;2023-01-10T11:10:02;8.65;;;5.03;;
55328;SDS011;41205;44.264;19.884;2023-01-10T11:12:38;19.38;;;12.82;;
55328;SDS011;41205;44.264;19.884;2023-01-10T11:18:13;15.68;;;10.80;;
55328;SDS011;41205;44.264;19.884;2023-01-10T11:20:50;13.48;;;9.38;;
55328;SDS011;41205;44.264;19.884;2023-01-10T11:24:04;7.63;;;5.50;;
55328;SDS011;41205;44.264;19.884;2023-01-10T11:28:48;11.80;;;6.82;;
55328;SDS011;41205;44.264;19.884;2023-01-10T11:31:24;10.45;;;7.30;;
55328;SDS011;41205;44.264;19.884;2023-01-10T11:33:52;7.20;;;4.72;;
55328;SDS011;41205;44.264;19.884;2023-01-10T11:36:18;8.75;;;5.78;;
55328;SDS011;41205;44.264;19.884;2023-01-10T11:38:46;10.95;;;7.13;;
55328;SDS011;41205;44.264;19.884;2023-01-10T11:41:27;7.65;;;5.30;;
55328;SDS011;41205;44.264;19.884;2023-01-10T11:44:19;13.75;;;8.13;;
55328;SDS011;41205;44.264;19.884;2023-01-10T11:47:00;17.27;;;8.77;;
55328;SDS011;41205;44.264;19.884;2023-01-10T11:49:35;5.40;;;2.97;;
55328;SDS011;41205;44.264;19.884;2023-01-10T11:54:50;6.97;;;4.07;;
55328;SDS011;41205;44.264;19.884;2023-01-10T11:57:20;7.22;;;4.90;;
55328;SDS011;41205;44.264;19.884;2023-01-10T11:59:49;9.98;;;7.25;;
55328;SDS011;41205;44.264;19.884;2023-01-10T12:02:28;15.05;;;7.90;;
55328;SDS011;41205;44.264;19.884;2023-01-10T12:04:58;10.32;;;5.30;;
55328;SDS011;41205;44.264;19.884;2023-01-10T12:07:28;9.27;;;3.47;;
55328;SDS011;41205;44.264;19.884;2023-01-10T12:09:58;8.50;;;4.82;;
55328;SDS011;41205;44.264;19.884;2023-01-10T12:12:29;9.00;;;5.00;;
55328;SDS011;41205;44.264;19.884;2023-01-10T12:14:57;14.95;;;8.98;;
55328;SDS011;41205;44.264;19.884;2023-01-10T12:17:27;8.70;;;5.35;;
55328;SDS011;41205;44.264;19.884;2023-01-10T12:19:55;15.70;;;9.50;;
55328;SDS011;41205;44.264;19.884;2023-01-10T12:22:29;17.00;;;9.38;;
55328;SDS011;41205;44.264;19.884;2023-01-10T12:24:58;11.70;;;8.45;;
55328;SDS011;41205;44.264;19.884;2023-01-10T12:27:26;13.02;;;7.78;;
55328;SDS011;41205;44.264;19.884;2023-01-10T12:30:04;22.10;;;12.75;;
55328;SDS011;41205;44.264;19.884;2023-01-10T12:32:53;26.77;;;18.20;;
55328;SDS011;41205;44.264;19.884;2023-01-10T12:35:26;17.08;;;12.20;;
55328;SDS011;41205;44.264;19.884;2023-01-10T12:41:18;19.23;;;10.95;;
55328;SDS011;41205;44.264;19.884;2023-01-10T12:44:23;12.00;;;7.57;;
55328;SDS011;41205;44.264;19.884;2023-01-10T12:50:02;9.20;;;6.80;;
55328;SDS011;41205;44.264;19.884;2023-01-10T12:53:05;12.52;;;7.25;;
55328;SDS011;41205;44.264;19.884;2023-01-10T12:56:01;22.40;;;16.40;;
55328;SDS011;41205;44.264;19.884;2023-01-10T13:04:06;6.85;;;5.03;;
55328;SDS011;41205;44.264;19.884;2023-01-10T13:06:38;8.35;;;4.75;;
55328;SDS011;41205;44.264;19.884;2023-01-10T13:09:26;9.77;;;5.13;;
55328;SDS011;41205;44.264;19.884;2023-01-10T13:14:30;7.07;;;4.18;;
55328;SDS011;41205;44.264;19.884;2023-01-10T13:22:54;24.67;;;16.60;;
55328;SDS011;41205;44.264;19.884;2023-01-10T13:25:34;27.00;;;16.08;;
55328;SDS011;41205;44.264;19.884;2023-01-10T13:30:31;8.20;;;5.57;;
55328;SDS011;41205;44.264;19.884;2023-01-10T13:33:04;15.77;;;9.52;;
55328;SDS011;41205;44.264;19.884;2023-01-10T13:35:39;13.77;;;8.40;;
55328;SDS011;41205;44.264;19.884;2023-01-10T13:38:16;9.30;;;5.85;;
55328;SDS011;41205;44.264;19.884;2023-01-10T13:41:00;6.00;;;4.63;;
55328;SDS011;41205;44.264;19.884;2023-01-10T13:43:35;8.40;;;4.80;;
55328;SDS011;41205;44.264;19.884;2023-01-10T13:49:37;20.48;;;16.52;;
55328;SDS011;41205;44.264;19.884;2023-01-10T13:51:27;11.02;;;6.55;;
55328;SDS011;41205;44.264;19.884;2023-01-10T13:54:39;19.60;;;16.27;;
55328;SDS011;41205;44.264;19.884;2023-01-10T13:56:52;14.45;;;10.60;;
55328;SDS011;41205;44.264;19.884;2023-01-10T14:02:38;22.88;;;15.77;;
55328;SDS011;41205;44.264;19.884;2023-01-10T14:04:58;13.05;;;9.07;;
55328;SDS011;41205;44.264;19.884;2023-01-10T14:07:50;13.25;;;8.45;;
55328;SDS011;41205;44.264;19.884;2023-01-10T14:15:27;11.40;;;7.40;;
55328;SDS011;41205;44.264;19.884;2023-01-10T14:18:03;33.60;;;25.00;;
55328;SDS011;41205;44.264;19.884;2023-01-10T14:20:57;17.38;;;9.73;;
55328;SDS011;41205;44.264;19.884;2023-01-10T14:26:16;15.27;;;9.77;;
55328;SDS011;41205;44.264;19.884;2023-01-10T14:28:48;16.90;;;13.10;;
55328;SDS011;41205;44.264;19.884;2023-01-10T14:31:19;12.20;;;9.05;;
55328;SDS011;41205;44.264;19.884;2023-01-10T14:33:49;5.75;;;3.80;;
55328;SDS011;41205;44.264;19.884;2023-01-10T14:36:20;12.88;;;6.43;;
55328;SDS011;41205;44.264;19.884;2023-01-10T14:38:54;12.02;;;7.90;;
55328;SDS011;41205;44.264;19.884;2023-01-10T14:41:44;105.30;;;70.53;;
55328;SDS011;41205;44.264;19.884;2023-01-10T14:46:57;64.70;;;48.10;;
55328;SDS011;41205;44.264;19.884;2023-01-10T14:49:27;10.52;;;5.97;;
55328;SDS011;41205;44.264;19.884;2023-01-10T14:52:17;15.07;;;9.20;;
55328;SDS011;41205;44.264;19.884;2023-01-10T14:54:45;9.75;;;6.25;;
55328;SDS011;41205;44.264;19.884;2023-01-10T14:57:18;6.95;;;3.42;;
55328;SDS011;41205;44.264;19.884;2023-01-10T14:59:45;8.40;;;5.18;;
55328;SDS011;41205;44.264;19.884;2023-01-10T15:02:16;7.28;;;4.20;;
55328;SDS011;41205;44.264;19.884;2023-01-10T15:04:54;6.38;;;3.50;;
55328;SDS011;41205;44.264;19.884;2023-01-10T15:07:23;75.80;;;45.95;;
55328;SDS011;41205;44.264;19.884;2023-01-10T15:09:53;45.75;;;30.10;;
55328;SDS011;41205;44.264;19.884;2023-01-10T15:12:26;8.35;;;3.85;;
55328;SDS011;41205;44.264;19.884;2023-01-10T15:14:59;6.90;;;3.75;;
55328;SDS011;41205;44.264;19.884;2023-01-10T15:17:32;25.92;;;17.42;;
55328;SDS011;41205;44.264;19.884;2023-01-10T15:19:59;6.82;;;5.15;;
55328;SDS011;41205;44.264;19.884;2023-01-10T15:24:57;8.48;;;5.85;;
55328;SDS011;41205;44.264;19.884;2023-01-10T15:27:24;5.35;;;3.00;;
55328;SDS011;41205;44.264;19.884;2023-01-10T15:29:50;7.68;;;4.95;;
55328;SDS011;41205;44.264;19.884;2023-01-10T15:34:57;10.82;;;7.63;;
55328;SDS011;41205;44.264;19.884;2023-01-10T15:37:24;5.97;;;3.70;;
55328;SDS011;41205;44.264;19.884;2023-01-10T15:39:58;4.72;;;2.65;;
55328;SDS011;41205;44.264;19.884;2023-01-10T15:42:25;5.88;;;3.17;;
55328;SDS011;41205;44.264;19.884;2023-01-10T15:44:51;4.40;;;2.67;;
55328;SDS011;41205;44.264;19.884;2023-01-10T15:49:55;7.88;;;6.05;;
55328;SDS011;41205;44.264;19.884;2023-01-10T15:52:22;15.43;;;10.95;;
55328;SDS011;41205;44.264;19.884;2023-01-10T15:54:48;4.97;;;3.05;;
55328;SDS011;41205;44.264;19.884;2023-01-10T15:57:25;8.90;;;5.63;;
55328;SDS011;41205;44.264;19.884;2023-01-10T15:59:53;4.70;;;3.25;;
55328;SDS011;41205;44.264;19.884;2023-01-10T16:02:23;7.13;;;4.68;;
55328;SDS011;41205;44.264;19.884;2023-01-10T16:04:54;8.60;;;5.45;;
55328;SDS011;41205;44.264;19.884;2023-01-10T16:07:27;11.93;;;6.35;;
55328;SDS011;41205;44.264;19.884;2023-01-10T16:12:36;27.10;;;19.33;;
55328;SDS011;41205;44.264;19.884;2023-01-10T16:15:26;28.35;;;17.45;;
55328;SDS011;41205;44.264;19.884;2023-01-10T16:17:53;5.95;;;3.45;;
55328;SDS011;41205;44.264;19.884;2023-01-10T16:20:24;15.95;;;8.63;;
55328;SDS011;41205;44.264;19.884;2023-01-10T16:22:52;4.25;;;2.90;;
55328;SDS011;41205;44.264;19.884;2023-01-10T16:25:27;11.45;;;8.55;;
55328;SDS011;41205;44.264;19.884;2023-01-10T16:27:56;4.85;;;3.83;;
55328;SDS011;41205;44.264;19.884;2023-01-10T16:30:23;9.73;;;6.65;;
55328;SDS011;41205;44.264;19.884;2023-01-10T16:32:49;6.55;;;4.65;;
55328;SDS011;41205;44.264;19.884;2023-01-10T16:35:16;15.48;;;14.18;;
55328;SDS011;41205;44.264;19.884;2023-01-10T16:37:43;5.07;;;3.03;;
55328;SDS011;41205;44.264;19.884;2023-01-10T16:40:13;6.47;;;3.22;;
55328;SDS011;41205;44.264;19.884;2023-01-10T16:42:40;4.95;;;3.38;;
55328;SDS011;41205;44.264;19.884;2023-01-10T16:45:25;6.90;;;4.43;;
55328;SDS011;41205;44.264;19.884;2023-01-10T16:47:51;9.68;;;6.63;;
55328;SDS011;41205;44.264;19.884;2023-01-10T16:50:17;4.10;;;2.90;;
55328;SDS011;41205;44.264;19.884;2023-01-10T16:52:44;3.72;;;2.88;;
55328;SDS011;41205;44.264;19.884;2023-01-10T16:55:14;6.55;;;4.65;;